Time;durP1;ratioP1;P1;durP2;ratioP2;P2;SDS_P1;SDS_P2;PMS_P1;PMS_P2;Temp;Humidity;BMP_temperature;BMP_pressure;BME280_temperature;BME280_humidity;BME280_pressure;Samples;Min_cycle;Max_cycle;Signal;HPM_P1;HPM_P2
2020/12/11 00:00:31;;;;;;;92.68;22.23;;;2.20;61.00;;;;;;5033269;28;20218;-75
2020/12/11 00:02:58;;;;;;;90.88;21.58;;;2.20;61.40;;;;;;5033573;28;20206;-75
2020/12/11 00:05:24;;;;;;;90.22;22.63;;;2.20;61.60;;;;;;5031479;28;20217;-75
2020/12/11 00:07:51;;;;;;;87.68;21.55;;;2.20;61.60;;;;;;5031695;28;20344;-75
2020/12/11 00:10:17;;;;;;;88.22;21.80;;;2.20;62.00;;;;;;5031660;28;20198;-75
2020/12/11 00:12:48;;;;;;;88.03;20.52;;;2.20;62.40;;;;;;5031112;28;20213;-75
2020/12/11 00:15:15;;;;;;;83.65;20.67;;;2.20;62.90;;;;;;5031709;28;20582;-75
2020/12/11 00:17:41;;;;;;;94.20;20.50;;;2.20;63.50;;;;;;5031151;28;20617;-75
2020/12/11 00:20:07;;;;;;;94.47;22.80;;;2.20;63.70;;;;;;5031260;28;20226;-75
2020/12/11 00:22:34;;;;;;;82.80;20.70;;;2.20;64.30;;;;;;5031027;28;20206;-75
2020/12/11 00:25:01;;;;;;;98.28;25.40;;;2.20;64.90;;;;;;5031495;28;20312;-75
2020/12/11 00:27:27;;;;;;;93.65;23.42;;;2.30;64.30;;;;;;5031148;28;20234;-75
2020/12/11 00:29:54;;;;;;;99.00;23.77;;;2.30;63.60;;;;;;5036005;28;20264;-75
2020/12/11 00:32:20;;;;;;;89.35;21.27;;;2.30;63.40;;;;;;5035013;28;20210;-75
2020/12/11 00:34:46;;;;;;;91.97;21.75;;;2.30;63.60;;;;;;5035262;28;20217;-75
2020/12/11 00:37:13;;;;;;;94.78;22.38;;;2.30;63.70;;;;;;5035198;28;20226;-75
2020/12/11 00:39:39;;;;;;;88.28;21.70;;;2.20;64.30;;;;;;5035242;28;20236;-75
2020/12/11 00:42:06;;;;;;;94.18;21.45;;;2.20;64.50;;;;;;5035165;28;20300;-75
2020/12/11 00:44:33;;;;;;;90.75;22.17;;;2.30;64.90;;;;;;5034914;28;20202;-75
2020/12/11 00:47:02;;;;;;;90.78;21.40;;;2.30;65.20;;;;;;5034768;28;20296;-74
2020/12/11 00:49:28;;;;;;;95.30;24.75;;;2.30;65.90;;;;;;5034806;28;20202;-75
2020/12/11 00:51:55;;;;;;;95.57;24.70;;;2.30;66.10;;;;;;5034861;28;20483;-75
2020/12/11 00:54:21;;;;;;;92.28;24.20;;;2.30;65.30;;;;;;5034777;28;20210;-75
2020/12/11 00:56:48;;;;;;;100.05;25.25;;;2.30;64.20;;;;;;5034873;28;20241;-75
2020/12/11 00:59:15;;;;;;;96.25;24.75;;;2.30;62.50;;;;;;5034747;28;20222;-75
2020/12/11 01:01:42;;;;;;;99.90;26.25;;;2.30;60.50;;;;;;5034481;28;20210;-75
2020/12/11 01:04:08;;;;;;;98.40;27.67;;;2.30;51.90;;;;;;5034638;28;20311;-75
2020/12/11 01:06:34;;;;;;;94.32;26.40;;;2.30;41.80;;;;;;5034316;28;20689;-75
2020/12/11 01:09:01;;;;;;;98.10;26.48;;;2.30;32.90;;;;;;5034585;28;20230;-74
2020/12/11 01:11:27;;;;;;;100.90;29.48;;;2.40;23.10;;;;;;5034551;28;20234;-74
2020/12/11 01:13:53;;;;;;;96.57;25.98;;;2.40;16.00;;;;;;5034196;28;20203;-74
2020/12/11 01:16:21;;;;;;;95.25;24.23;;;2.40;11.30;;;;;;5034346;28;20259;-75
2020/12/11 01:18:47;;;;;;;96.85;26.80;;;2.40;9.00;;;;;;5034190;28;20230;-75
2020/12/11 01:21:13;;;;;;;95.40;26.35;;;2.30;5.20;;;;;;5034226;28;20237;-75
2020/12/11 01:23:40;;;;;;;100.53;26.75;;;2.30;6.80;;;;;;5033966;28;20206;-74
2020/12/11 01:26:08;;;;;;;88.97;23.50;;;2.30;11.20;;;;;;5034335;28;20253;-75
2020/12/11 01:28:34;;;;;;;95.63;25.48;;;2.30;15.10;;;;;;5033839;28;20588;-75
2020/12/11 01:31:01;;;;;;;96.18;24.75;;;2.20;18.70;;;;;;5034128;28;20297;-75
2020/12/11 01:33:28;;;;;;;89.40;24.77;;;2.20;18.20;;;;;;5033966;28;20207;-75
2020/12/11 01:35:54;;;;;;;92.28;23.85;;;2.20;23.60;;;;;;5034077;28;20674;-75
2020/12/11 01:38:21;;;;;;;89.07;24.38;;;2.10;27.60;;;;;;5033952;28;20321;-75
2020/12/11 01:40:47;;;;;;;90.78;24.00;;;2.10;30.20;;;;;;5033146;28;20229;-75
2020/12/11 01:43:14;;;;;;;90.65;24.73;;;2.10;32.50;;;;;;5034320;28;20213;-75
2020/12/11 01:45:41;;;;;;;95.65;25.55;;;2.00;35.30;;;;;;5034115;28;20678;-75
2020/12/11 01:48:07;;;;;;;95.03;25.25;;;2.00;32.80;;;;;;5033962;28;20233;-75
2020/12/11 01:50:35;;;;;;;95.53;24.98;;;2.00;30.00;;;;;;5034389;28;20199;-75
2020/12/11 01:53:01;;;;;;;89.80;23.23;;;2.00;30.30;;;;;;5035518;28;20301;-75
2020/12/11 01:55:27;;;;;;;95.05;25.27;;;1.90;31.70;;;;;;5053685;28;20206;-74
2020/12/11 01:57:58;;;;;;;95.85;24.10;;;1.90;33.10;;;;;;5052246;28;20231;-75
2020/12/11 02:00:25;;;;;;;98.53;25.80;;;1.80;33.90;;;;;;5051544;28;20234;-74
2020/12/11 02:03:02;;;;;;;94.05;22.60;;;1.80;36.30;;;;;;5054429;28;20236;-74
2020/12/11 02:05:28;;;;;;;86.47;22.77;;;1.80;38.50;;;;;;5054485;28;20206;-74
2020/12/11 02:07:56;;;;;;;94.43;24.38;;;1.80;41.10;;;;;;5053757;28;20250;-74
2020/12/11 02:10:23;;;;;;;88.32;23.50;;;1.80;43.10;;;;;;5053709;28;20198;-74
2020/12/11 02:12:49;;;;;;;92.32;23.92;;;1.80;44.10;;;;;;5053228;28;20236;-74
2020/12/11 02:15:15;;;;;;;85.82;22.98;;;1.80;45.90;;;;;;5048230;28;20210;-75
2020/12/11 02:17:42;;;;;;;86.28;21.42;;;1.80;47.30;;;;;;5033051;28;20245;-74
2020/12/11 02:20:08;;;;;;;96.53;23.02;;;1.80;48.00;;;;;;5033280;28;20248;-75
2020/12/11 02:22:35;;;;;;;92.18;22.95;;;1.80;46.60;;;;;;5032840;28;20288;-74
2020/12/11 02:25:02;;;;;;;87.80;21.35;;;1.80;47.00;;;;;;5029771;28;20217;-74
2020/12/11 02:27:28;;;;;;;89.30;23.13;;;1.80;47.30;;;;;;5032906;28;20325;-75
2020/12/11 02:29:55;;;;;;;97.10;25.63;;;1.80;48.30;;;;;;5047180;22;20288;-70
2020/12/11 02:32:21;;;;;;;93.03;24.70;;;1.80;48.00;;;;;;5032585;28;20237;-70
2020/12/11 02:34:48;;;;;;;89.80;22.73;;;1.70;49.20;;;;;;5033001;28;20260;-70
2020/12/11 02:37:14;;;;;;;91.30;23.70;;;1.70;49.80;;;;;;5032387;28;20241;-70
2020/12/11 02:39:41;;;;;;;95.70;24.27;;;1.70;50.50;;;;;;5032628;28;20230;-70
2020/12/11 02:42:08;;;;;;;87.85;22.95;;;1.70;48.90;;;;;;5032838;28;20210;-70
2020/12/11 02:44:34;;;;;;;93.47;24.05;;;1.70;48.50;;;;;;5032757;28;20236;-70
2020/12/11 02:47:01;;;;;;;87.15;21.00;;;1.70;48.50;;;;;;5032577;28;20289;-70
2020/12/11 02:49:27;;;;;;;93.53;23.30;;;1.70;48.00;;;;;;5032292;28;20721;-70
2020/12/11 02:51:54;;;;;;;88.53;22.90;;;1.60;48.60;;;;;;5031942;28;20217;-70
2020/12/11 02:54:20;;;;;;;86.72;21.65;;;1.60;48.80;;;;;;5032223;28;20202;-70
2020/12/11 02:56:47;;;;;;;92.40;24.20;;;1.50;48.60;;;;;;5032779;28;20210;-70
2020/12/11 02:59:14;;;;;;;93.00;24.45;;;1.40;48.10;;;;;;5032296;28;20747;-70
2020/12/11 03:01:40;;;;;;;91.03;22.75;;;1.40;48.00;;;;;;5032190;28;20203;-70
2020/12/11 03:04:06;;;;;;;88.93;22.08;;;1.40;48.10;;;;;;5031769;28;20206;-70
2020/12/11 03:06:34;;;;;;;89.63;22.10;;;1.30;48.90;;;;;;5032011;28;20217;-70
2020/12/11 03:09:01;;;;;;;92.55;23.55;;;1.20;48.70;;;;;;5032008;28;20206;-70
2020/12/11 03:11:27;;;;;;;92.97;24.52;;;1.20;48.80;;;;;;5031845;28;20663;-70
2020/12/11 03:13:55;;;;;;;89.82;24.17;;;1.20;49.10;;;;;;5031823;28;20297;-70
2020/12/11 03:16:21;;;;;;;93.32;23.13;;;1.10;49.30;;;;;;5032065;28;20210;-70
2020/12/11 03:18:48;;;;;;;90.32;25.10;;;1.10;48.90;;;;;;5031788;28;20202;-70
2020/12/11 03:21:15;;;;;;;92.28;22.98;;;1.00;49.50;;;;;;5031666;28;20316;-70
2020/12/11 03:23:41;;;;;;;93.57;24.75;;;1.00;50.00;;;;;;5031446;28;20237;-70
2020/12/11 03:26:08;;;;;;;94.47;25.75;;;1.00;50.00;;;;;;5031812;28;20214;-70
2020/12/11 03:28:35;;;;;;;92.90;23.23;;;1.00;50.30;;;;;;5031924;28;20301;-70
2020/12/11 03:31:03;;;;;;;93.95;22.83;;;0.90;50.40;;;;;;5031752;28;20227;-70
2020/12/11 03:33:29;;;;;;;95.65;25.52;;;0.90;51.30;;;;;;5031386;28;20206;-70
2020/12/11 03:35:55;;;;;;;90.47;23.30;;;0.90;51.60;;;;;;5031627;28;20206;-70
2020/12/11 03:38:22;;;;;;;90.43;23.52;;;0.80;51.30;;;;;;5031662;28;20210;-70
2020/12/11 03:40:49;;;;;;;92.88;26.27;;;0.80;51.00;;;;;;5031773;28;20226;-70
2020/12/11 03:43:15;;;;;;;90.28;22.17;;;0.70;50.70;;;;;;5031261;28;20667;-70
2020/12/11 03:45:42;;;;;;;93.70;23.92;;;0.70;50.60;;;;;;5031330;28;20292;-70
2020/12/11 03:48:09;;;;;;;89.15;22.60;;;0.70;50.50;;;;;;5031821;28;20627;-70
2020/12/11 03:50:35;;;;;;;90.50;22.30;;;0.60;49.90;;;;;;5031478;28;20218;-70
2020/12/11 03:53:02;;;;;;;86.00;20.80;;;0.60;49.70;;;;;;5031260;28;20657;-70
2020/12/11 03:55:29;;;;;;;90.32;22.73;;;0.50;50.10;;;;;;5031435;28;20260;-70
2020/12/11 03:57:56;;;;;;;88.40;21.60;;;0.50;48.70;;;;;;5030997;28;20209;-70
2020/12/11 04:00:22;;;;;;;86.72;22.00;;;0.40;48.50;;;;;;5031051;28;20230;-70
2020/12/11 04:02:49;;;;;;;92.90;22.33;;;0.40;48.00;;;;;;5031022;28;20241;-70
2020/12/11 04:05:16;;;;;;;87.78;20.80;;;0.30;47.70;;;;;;5031259;28;20264;-70
2020/12/11 04:07:42;;;;;;;83.35;19.83;;;0.30;47.30;;;;;;5031305;28;20312;-70
2020/12/11 04:10:08;;;;;;;89.22;21.77;;;0.30;47.60;;;;;;5031427;28;20222;-70
2020/12/11 04:12:35;;;;;;;87.00;20.80;;;0.20;46.50;;;;;;5031238;28;20210;-70
2020/12/11 04:15:01;;;;;;;88.65;21.85;;;0.20;47.00;;;;;;5031031;28;20767;-70
2020/12/11 04:17:27;;;;;;;87.32;21.48;;;0.20;46.70;;;;;;5031121;28;20352;-70
2020/12/11 04:19:54;;;;;;;84.63;21.13;;;0.20;46.90;;;;;;5030756;28;20226;-70
2020/12/11 04:22:23;;;;;;;86.10;21.25;;;0.10;46.60;;;;;;5030857;28;20206;-70
2020/12/11 04:24:50;;;;;;;87.53;21.67;;;0.10;47.20;;;;;;5030833;28;20213;-70
2020/12/11 04:27:16;;;;;;;96.50;24.10;;;0.10;47.50;;;;;;5031222;28;20293;-70
2020/12/11 04:29:42;;;;;;;94.32;21.90;;;0.10;48.70;;;;;;5030952;28;20333;-70
2020/12/11 04:32:09;;;;;;;93.80;19.70;;;0.10;49.80;;;;;;5031300;28;20634;-70
2020/12/11 04:34:35;;;;;;;90.43;20.80;;;0.10;50.40;;;;;;5031178;28;20297;-70
2020/12/11 04:37:01;;;;;;;83.30;19.85;;;0.10;51.80;;;;;;5030653;28;20688;-70
2020/12/11 04:39:28;;;;;;;90.53;21.30;;;0.10;53.80;;;;;;5030784;28;20317;-70
2020/12/11 04:41:55;;;;;;;88.72;21.25;;;0.00;55.70;;;;;;5030958;28;20634;-70
2020/12/11 04:44:22;;;;;;;92.85;23.30;;;0.00;57.60;;;;;;5030962;28;20297;-70
2020/12/11 04:46:49;;;;;;;89.82;20.00;;;0.00;58.70;;;;;;5031061;28;20272;-70
2020/12/11 04:49:15;;;;;;;91.65;22.65;;;0.00;60.80;;;;;;5031035;28;20210;-70
2020/12/11 04:51:48;;;;;;;97.35;22.88;;;0.00;62.00;;;;;;5030664;28;20230;-70
2020/12/11 04:54:18;;;;;;;95.00;23.17;;;0.00;62.40;;;;;;5030707;28;20202;-70
2020/12/11 04:56:47;;;;;;;95.30;20.83;;;0.00;63.00;;;;;;5030762;28;20233;-70
2020/12/11 04:59:14;;;;;;;93.40;23.90;;;0.00;63.50;;;;;;5030858;28;20206;-70
2020/12/11 05:01:40;;;;;;;95.75;22.88;;;0.00;63.30;;;;;;5030736;28;20601;-70
2020/12/11 05:04:07;;;;;;;90.22;21.38;;;-0.10;63.70;;;;;;5030744;28;20214;-70
2020/12/11 05:06:33;;;;;;;90.90;22.00;;;-0.10;63.70;;;;;;5030184;28;20577;-70
2020/12/11 05:09:15;;;;;;;94.80;21.38;;;-0.10;64.30;;;;;;5030790;28;20245;-70
2020/12/11 05:11:43;;;;;;;88.68;22.10;;;-0.20;64.00;;;;;;5030863;28;20205;-70
2020/12/11 05:14:20;;;;;;;94.55;20.77;;;-0.20;64.20;;;;;;5030595;28;20206;-70
2020/12/11 05:16:57;;;;;;;98.82;20.98;;;-0.30;64.00;;;;;;5034644;28;20289;-70
2020/12/11 05:19:24;;;;;;;95.20;22.60;;;-0.30;63.20;;;;;;5034024;28;20288;-70
2020/12/11 05:21:51;;;;;;;95.97;21.98;;;-0.40;62.90;;;;;;5033748;28;20294;-70
2020/12/11 05:24:17;;;;;;;94.80;21.58;;;-0.40;62.50;;;;;;5034260;28;20276;-70
2020/12/11 05:26:43;;;;;;;94.60;21.27;;;-0.50;61.80;;;;;;5033232;28;20202;-70
2020/12/11 05:29:10;;;;;;;94.97;20.20;;;-0.50;61.00;;;;;;5033367;28;20221;-70
2020/12/11 05:31:37;;;;;;;92.05;21.65;;;-0.60;60.50;;;;;;5033577;28;20210;-70
2020/12/11 05:34:06;;;;;;;91.97;21.75;;;-0.60;60.40;;;;;;5032756;28;20677;-70
2020/12/11 05:36:44;;;;;;;95.18;20.33;;;-0.60;59.40;;;;;;5033961;28;20214;-70
2020/12/11 05:39:11;;;;;;;88.95;19.83;;;-0.60;59.50;;;;;;5033565;28;20726;-70
2020/12/11 05:41:38;;;;;;;98.38;20.70;;;-0.70;58.20;;;;;;5034070;28;20347;-70
2020/12/11 05:44:23;;;;;;;87.82;20.73;;;-0.70;58.40;;;;;;5033252;28;20202;-71
2020/12/11 05:46:50;;;;;;;87.03;20.50;;;-0.70;58.00;;;;;;5033388;28;20282;-70
2020/12/11 05:49:28;;;;;;;90.63;21.27;;;-0.70;58.00;;;;;;5033367;28;20596;-70
2020/12/11 05:52:10;;;;;;;88.07;21.05;;;-0.70;58.40;;;;;;5033022;28;20739;-70
2020/12/11 05:54:42;;;;;;;94.65;22.00;;;-0.80;58.10;;;;;;5033339;28;20206;-70
2020/12/11 05:57:10;;;;;;;96.60;21.90;;;-0.80;58.40;;;;;;5033550;28;20210;-71
2020/12/11 05:59:37;;;;;;;89.85;22.77;;;-0.80;58.60;;;;;;5033335;28;20230;-70
2020/12/11 06:02:04;;;;;;;98.47;22.60;;;-0.80;58.60;;;;;;5033332;28;20214;-70
2020/12/11 06:04:31;;;;;;;93.72;22.45;;;-0.80;58.80;;;;;;5033448;28;20210;-70
2020/12/11 06:06:59;;;;;;;88.80;20.40;;;-0.80;58.80;;;;;;5033174;28;20228;-70
2020/12/11 06:09:34;;;;;;;93.10;21.67;;;-0.80;58.10;;;;;;5033297;28;20253;-70
2020/12/11 06:12:01;;;;;;;94.22;19.80;;;-0.90;58.30;;;;;;5033458;28;20206;-70
2020/12/11 06:14:48;;;;;;;91.45;20.67;;;-0.90;58.00;;;;;;5033329;28;20280;-70
2020/12/11 06:17:16;;;;;;;101.15;22.75;;;-0.90;58.90;;;;;;5033287;28;20570;-70
2020/12/11 06:19:44;;;;;;;97.30;21.90;;;-0.90;60.10;;;;;;5032936;28;20226;-70
2020/12/11 06:22:12;;;;;;;92.75;22.33;;;-0.90;60.40;;;;;;5032655;28;20209;-70
2020/12/11 06:24:38;;;;;;;105.50;22.80;;;-0.90;61.20;;;;;;5033157;28;20210;-70
2020/12/11 06:27:06;;;;;;;110.50;23.55;;;-0.90;61.80;;;;;;5032772;28;20703;-70
2020/12/11 06:29:35;;;;;;;105.25;24.48;;;-0.90;62.30;;;;;;5032724;28;20802;-70
2020/12/11 06:32:01;;;;;;;105.63;25.30;;;-0.80;62.70;;;;;;5033081;28;20206;-71
2020/12/11 06:34:28;;;;;;;112.43;23.20;;;-0.80;63.30;;;;;;5032447;28;20297;-70
2020/12/11 06:36:56;;;;;;;105.60;23.10;;;-0.80;63.80;;;;;;5032451;28;20335;-70
2020/12/11 06:39:41;;;;;;;103.18;23.70;;;-0.80;64.30;;;;;;5032609;28;20267;-70
2020/12/11 06:42:09;;;;;;;108.03;25.50;;;-0.80;64.70;;;;;;5032887;28;20642;-70
2020/12/11 06:44:35;;;;;;;118.93;26.75;;;-0.70;65.00;;;;;;5032460;28;20206;-70
2020/12/11 06:47:10;;;;;;;102.80;24.40;;;-0.70;65.30;;;;;;5032576;28;20216;-70
2020/12/11 06:49:58;;;;;;;110.78;27.70;;;-0.70;66.10;;;;;;5032375;28;20593;-70
2020/12/11 06:52:34;;;;;;;104.65;22.73;;;-0.70;66.10;;;;;;5031566;28;20729;-70
2020/12/11 06:55:01;;;;;;;115.82;25.70;;;-0.70;66.30;;;;;;5032107;28;20206;-70
2020/12/11 06:57:34;;;;;;;129.00;26.27;;;-0.60;67.00;;;;;;5031960;28;20210;-70
2020/12/11 07:00:30;;;;;;;111.03;26.75;;;-0.60;67.20;;;;;;5032200;28;20230;-70
2020/12/11 07:03:16;;;;;;;112.97;27.00;;;-0.50;68.00;;;;;;5031942;28;20210;-70
2020/12/11 07:05:43;;;;;;;110.72;25.40;;;-0.40;68.80;;;;;;5032073;28;20237;-70
2020/12/11 07:08:14;;;;;;;112.97;24.98;;;-0.30;69.30;;;;;;5032062;28;20256;-70
2020/12/11 07:10:41;;;;;;;114.60;28.63;;;-0.30;69.60;;;;;;5032165;28;20246;-70
2020/12/11 07:13:09;;;;;;;104.43;25.83;;;-0.20;69.90;;;;;;5031676;28;20206;-70
2020/12/11 07:15:36;;;;;;;128.05;25.00;;;-0.20;69.80;;;;;;5032061;28;20202;-70
2020/12/11 07:18:03;;;;;;;116.53;25.45;;;-0.30;69.90;;;;;;5031686;28;20312;-70
2020/12/11 07:20:29;;;;;;;121.38;24.75;;;-0.20;70.30;;;;;;5031596;28;20657;-70
2020/12/11 07:22:59;;;;;;;118.03;24.50;;;-0.20;70.00;;;;;;5031428;28;20206;-70
2020/12/11 07:25:27;;;;;;;116.93;29.67;;;-0.20;70.00;;;;;;5031478;28;20698;-70
2020/12/11 07:28:00;;;;;;;115.80;25.05;;;-0.20;70.60;;;;;;5031822;28;20587;-70
2020/12/11 07:30:27;;;;;;;124.03;27.10;;;-0.20;70.60;;;;;;5031818;28;20284;-70
2020/12/11 07:32:55;;;;;;;119.70;26.70;;;-0.20;70.90;;;;;;5031750;28;20210;-70
2020/12/11 07:35:22;;;;;;;114.72;27.35;;;-0.20;71.00;;;;;;5031721;28;20636;-70
2020/12/11 07:37:52;;;;;;;123.95;30.02;;;-0.10;71.30;;;;;;5031090;28;20206;-70
2020/12/11 07:40:19;;;;;;;113.65;24.15;;;-0.10;71.60;;;;;;5031592;28;20334;-70
2020/12/11 07:42:47;;;;;;;113.35;27.55;;;-0.10;71.50;;;;;;5032078;28;20297;-70
2020/12/11 07:45:23;;;;;;;111.68;28.35;;;0.00;71.50;;;;;;5031272;28;20248;-70
2020/12/11 07:47:50;;;;;;;115.95;27.92;;;0.00;71.60;;;;;;5032064;28;20743;-70
2020/12/11 07:50:19;;;;;;;121.47;28.48;;;0.10;71.30;;;;;;5031459;28;20306;-70
2020/12/11 07:52:46;;;;;;;103.95;26.20;;;0.10;70.60;;;;;;5031620;28;20206;-70
2020/12/11 07:55:12;;;;;;;106.13;23.60;;;0.10;70.80;;;;;;5031244;28;20209;-69
2020/12/11 07:57:39;;;;;;;109.97;23.52;;;0.10;71.20;;;;;;5031422;28;20206;-69
2020/12/11 08:00:08;;;;;;;109.53;24.15;;;0.10;71.10;;;;;;5031262;28;20412;-69
2020/12/11 08:02:35;;;;;;;108.90;26.23;;;0.10;71.30;;;;;;5031422;28;20296;-69
2020/12/11 08:05:06;;;;;;;100.70;22.67;;;0.20;71.80;;;;;;5031316;28;20210;-69
2020/12/11 08:07:32;;;;;;;114.85;23.65;;;0.20;71.70;;;;;;5031609;28;20210;-69
2020/12/11 08:10:07;;;;;;;119.28;26.48;;;0.20;71.80;;;;;;5031488;28;20661;-69
2020/12/11 08:12:34;;;;;;;119.22;26.73;;;0.20;71.90;;;;;;5031110;28;20615;-69
2020/12/11 08:15:01;;;;;;;124.90;28.50;;;0.30;72.30;;;;;;5031417;28;20309;-68
2020/12/11 08:17:30;;;;;;;114.70;26.25;;;0.30;72.50;;;;;;5031190;28;20424;-69
2020/12/11 08:19:58;;;;;;;116.40;25.40;;;0.30;72.70;;;;;;5031298;28;20226;-69
2020/12/11 08:22:30;;;;;;;118.10;26.20;;;0.30;72.90;;;;;;5031232;28;20206;-70
2020/12/11 08:24:56;;;;;;;134.60;26.10;;;0.40;73.20;;;;;;5030822;28;20280;-70
2020/12/11 08:27:24;;;;;;;130.65;29.42;;;0.40;73.50;;;;;;5031399;28;20661;-70
2020/12/11 08:32:27;;;;;;;142.30;30.80;;;0.70;74.40;;;;;;5047265;28;20217;-74
2020/12/11 08:34:53;;;;;;;131.73;29.13;;;0.90;75.10;;;;;;5054583;28;20292;-72
2020/12/11 08:37:19;;;;;;;120.90;29.73;;;1.10;74.70;;;;;;5052317;28;20210;-74
2020/12/11 08:39:46;;;;;;;131.68;32.17;;;1.30;71.10;;;;;;5051376;28;20210;-75
2020/12/11 08:42:18;;;;;;;133.52;31.65;;;1.40;60.20;;;;;;5050790;28;20799;-73
2020/12/11 08:48:12;;;;;;;130.20;25.95;;;1.80;54.80;;;;;;5051079;28;20198;-72
2020/12/11 08:50:42;;;;;;;137.85;27.63;;;1.90;49.60;;;;;;5054531;28;20878;-73
2020/12/11 08:53:10;;;;;;;131.30;28.20;;;2.10;51.70;;;;;;5054764;28;20215;-73
2020/12/11 08:55:37;;;;;;;111.78;27.92;;;2.10;54.80;;;;;;5054488;28;20241;-73
2020/12/11 08:58:04;;;;;;;150.23;29.88;;;2.10;55.40;;;;;;5054677;28;20202;-73
2020/12/11 09:00:30;;;;;;;123.30;25.90;;;2.10;54.30;;;;;;5054192;28;20234;-73
2020/12/11 09:02:57;;;;;;;109.82;24.95;;;2.10;53.70;;;;;;5054827;28;20292;-73
2020/12/11 09:05:25;;;;;;;128.95;28.70;;;2.10;49.00;;;;;;5054507;28;20292;-73
2020/12/11 09:07:51;;;;;;;102.20;25.70;;;2.20;49.10;;;;;;5054513;28;20260;-73
2020/12/11 09:10:18;;;;;;;103.28;25.85;;;2.30;42.80;;;;;;5054814;28;20227;-73
2020/12/11 09:12:47;;;;;;;116.22;26.95;;;2.30;35.70;;;;;;5054730;28;20201;-73
2020/12/11 09:15:14;;;;;;;106.60;25.58;;;2.40;36.20;;;;;;5054488;28;20488;-74
2020/12/11 09:17:40;;;;;;;110.80;29.40;;;2.40;30.80;;;;;;5054390;28;20210;-73
2020/12/11 09:20:08;;;;;;;98.65;24.85;;;2.40;4.80;;;;;;5054372;28;20296;-73
2020/12/11 09:22:34;;;;;;;108.65;27.65;;;2.50;1.00;;;;;;5054031;28;20201;-73
2020/12/11 09:25:01;;;;;;;101.53;26.95;;;2.60;1.00;;;;;;5054046;28;20591;-73
2020/12/11 09:27:28;;;;;;;103.10;26.00;;;2.70;1.00;;;;;;5053880;28;20694;-72
2020/12/11 09:29:59;;;;;;;104.07;27.20;;;2.80;1.00;;;;;;5054052;28;20232;-73
2020/12/11 09:32:33;;;;;;;101.60;26.35;;;2.80;1.00;;;;;;5054414;28;20243;-73
2020/12/11 09:34:59;;;;;;;95.75;24.60;;;2.80;1.00;;;;;;5053914;28;20206;-73
2020/12/11 09:37:27;;;;;;;100.57;25.08;;;2.90;1.00;;;;;;5054111;28;20304;-72
2020/12/11 09:39:53;;;;;;;96.70;23.90;;;3.00;1.00;;;;;;5053692;28;20208;-72
2020/12/11 09:42:38;;;;;;;98.30;25.88;;;3.10;1.00;;;;;;5054165;28;20591;-73
2020/12/11 09:45:14;;;;;;;98.00;26.33;;;3.20;1.00;;;;;;5053794;28;20298;-72
2020/12/11 09:47:47;;;;;;;94.28;24.60;;;3.30;1.00;;;;;;5053865;28;20209;-72
2020/12/11 09:50:28;;;;;;;94.03;23.85;;;3.20;1.00;;;;;;5053622;28;20245;-73
2020/12/11 09:53:03;;;;;;;87.43;20.83;;;3.10;1.00;;;;;;5053872;28;20233;-72
2020/12/11 09:55:37;;;;;;;100.78;26.27;;;3.00;1.00;;;;;;5053219;28;20212;-73
2020/12/11 09:58:04;;;;;;;95.30;23.45;;;3.00;1.00;;;;;;5053802;28;20205;-73
2020/12/11 10:00:30;;;;;;;91.82;22.75;;;3.10;1.00;;;;;;5052655;28;20554;-73
2020/12/11 10:02:59;;;;;;;95.70;25.52;;;3.20;1.00;;;;;;5053409;28;20292;-73
2020/12/11 10:05:26;;;;;;;94.97;23.70;;;3.20;1.00;;;;;;5053259;28;20209;-72
2020/12/11 10:07:52;;;;;;;91.07;23.38;;;3.30;1.00;;;;;;5053613;28;20255;-73
2020/12/11 10:10:19;;;;;;;93.13;24.05;;;3.30;1.00;;;;;;5053267;28;20229;-73
2020/12/11 10:12:45;;;;;;;90.90;23.85;;;3.60;1.00;;;;;;5053293;28;20205;-73
2020/12/11 10:15:12;;;;;;;90.00;22.60;;;3.70;1.00;;;;;;5053143;28;20205;-72
2020/12/11 10:17:38;;;;;;;89.28;23.58;;;3.90;1.00;;;;;;5052939;28;20628;-73
2020/12/11 10:20:05;;;;;;;90.07;20.70;;;4.00;1.00;;;;;;5053396;28;20301;-73
2020/12/11 10:22:32;;;;;;;91.35;24.02;;;4.10;1.00;;;;;;5053115;28;20296;-73
2020/12/11 10:24:58;;;;;;;92.72;22.23;;;4.20;1.00;;;;;;5052923;28;20202;-73
2020/12/11 10:27:25;;;;;;;89.75;22.85;;;4.20;1.00;;;;;;5052924;28;20296;-73
2020/12/11 10:29:52;;;;;;;86.35;21.20;;;4.10;1.00;;;;;;5053009;28;20308;-73
2020/12/11 10:32:18;;;;;;;84.50;20.50;;;4.10;1.00;;;;;;5052731;28;20715;-73
2020/12/11 10:34:44;;;;;;;85.40;21.45;;;4.10;1.00;;;;;;5054259;28;20210;-73
2020/12/11 10:37:12;;;;;;;87.45;21.05;;;4.10;1.00;;;;;;5053658;28;20205;-73
2020/12/11 10:39:39;;;;;;;86.07;20.25;;;4.00;1.00;;;;;;5052933;28;20201;-73
2020/12/11 10:42:08;;;;;;;87.03;21.40;;;3.90;1.00;;;;;;5052627;28;20225;-73
2020/12/11 10:44:35;;;;;;;84.25;19.33;;;3.90;1.00;;;;;;5052203;28;20288;-73
2020/12/11 10:47:01;;;;;;;87.95;20.40;;;3.80;1.00;;;;;;5052926;28;20626;-73
2020/12/11 10:49:28;;;;;;;81.32;19.85;;;3.70;1.00;;;;;;5052510;28;20205;-73
2020/12/11 10:51:54;;;;;;;81.68;17.75;;;3.70;1.00;;;;;;5052699;28;20221;-73
2020/12/11 10:54:26;;;;;;;89.90;20.85;;;3.60;1.00;;;;;;5052078;28;20236;-72
2020/12/11 10:56:53;;;;;;;82.35;19.42;;;3.50;1.00;;;;;;5052713;28;20209;-73
2020/12/11 10:59:19;;;;;;;85.78;18.75;;;3.50;1.00;;;;;;5052850;28;20275;-73
2020/12/11 11:01:46;;;;;;;83.10;20.00;;;3.50;1.00;;;;;;5052380;28;20647;-73
2020/12/11 11:04:12;;;;;;;79.47;18.38;;;3.40;1.00;;;;;;5052296;28;20601;-72
2020/12/11 11:06:45;;;;;;;83.90;19.95;;;3.30;1.00;;;;;;5052303;28;20205;-73
2020/12/11 11:09:31;;;;;;;82.60;19.42;;;3.20;1.00;;;;;;5052262;28;20255;-73
2020/12/11 11:12:05;;;;;;;79.78;18.35;;;3.30;1.00;;;;;;5052032;28;20256;-74
2020/12/11 11:14:56;;;;;;;83.72;19.20;;;3.40;1.00;;;;;;5052180;28;20205;-74
2020/12/11 11:20:17;;;;;;;84.43;20.10;;;3.40;1.00;;;;;;5052291;28;20549;-73
2020/12/11 11:22:51;;;;;;;83.60;19.00;;;3.40;1.00;;;;;;5052338;28;20211;-73
2020/12/11 11:27:54;;;;;;;82.00;17.90;;;3.80;1.00;;;;;;5052216;28;20681;-74
2020/12/11 11:30:22;;;;;;;83.50;19.05;;;4.10;1.00;;;;;;5051940;28;20752;-73
2020/12/11 11:32:51;;;;;;;81.55;18.63;;;4.30;1.00;;;;;;5052420;28;20213;-72
2020/12/11 11:35:18;;;;;;;85.10;20.15;;;4.50;1.00;;;;;;5052049;28;20206;-72
2020/12/11 11:37:45;;;;;;;82.88;20.45;;;4.70;1.00;;;;;;5052142;28;20201;-73
2020/12/11 11:40:12;;;;;;;82.43;19.20;;;4.90;1.00;;;;;;5052441;28;20512;-72
2020/12/11 11:42:38;;;;;;;79.97;19.30;;;5.10;1.00;;;;;;5052091;28;20607;-72
2020/12/11 11:45:06;;;;;;;84.85;20.58;;;5.10;1.00;;;;;;5051881;28;20212;-72
2020/12/11 11:47:34;;;;;;;84.05;20.00;;;5.20;1.00;;;;;;5052140;28;20233;-73
2020/12/11 11:50:11;;;;;;;81.60;20.25;;;5.20;1.00;;;;;;5051873;28;20213;-72
2020/12/11 11:52:39;;;;;;;80.72;18.55;;;5.20;1.00;;;;;;5051648;28;20198;-72
2020/12/11 11:55:07;;;;;;;81.18;20.38;;;5.10;1.00;;;;;;5051333;28;20359;-74
2020/12/11 11:57:33;;;;;;;85.35;21.02;;;5.30;1.00;;;;;;5051774;28;20213;-73
2020/12/11 12:00:02;;;;;;;86.32;21.83;;;6.40;1.00;;;;;;5051561;28;20256;-73
2020/12/11 12:02:28;;;;;;;86.87;21.63;;;7.70;1.00;;;;;;5051239;28;20237;-73
2020/12/11 12:04:55;;;;;;;87.77;23.67;;;8.80;1.00;;;;;;5051010;28;20961;-73
2020/12/11 12:07:22;;;;;;;81.30;20.00;;;9.80;1.00;;;;;;5051354;28;20449;-73
2020/12/11 12:09:48;;;;;;;78.80;18.30;;;9.80;1.00;;;;;;5051279;28;20922;-74
2020/12/11 12:12:14;;;;;;;78.07;18.97;;;9.20;1.00;;;;;;5051096;28;20485;-73
2020/12/11 12:14:42;;;;;;;80.73;19.27;;;8.70;1.00;;;;;;5051164;28;20544;-73
2020/12/11 12:17:09;;;;;;;78.03;18.27;;;8.40;1.00;;;;;;5051587;28;20453;-73
2020/12/11 12:19:38;;;;;;;78.80;20.50;;;8.30;1.00;;;;;;5051196;28;20454;-73
2020/12/11 12:22:51;;;;;;;77.77;16.83;;;8.20;1.00;;;;;;5051151;28;20494;-73
2020/12/11 12:30:48;;;;;;;74.40;17.07;;;8.20;1.00;;;;;;5054959;28;20453;-73
2020/12/11 12:36:21;;;;;;;78.27;18.27;;;8.00;1.00;;;;;;5056194;28;20446;-73
2020/12/11 12:38:51;;;;;;;76.17;16.27;;;7.80;1.00;;;;;;5056867;28;20449;-73
2020/12/11 12:44:03;;;;;;;73.90;15.35;;;7.20;1.00;;;;;;5055009;28;20441;-73
2020/12/11 12:46:29;;;;;;;77.15;17.58;;;6.90;1.00;;;;;;5055167;28;20201;-72
2020/12/11 12:48:55;;;;;;;75.97;15.75;;;6.70;1.00;;;;;;5054833;28;20207;-72
2020/12/11 12:51:22;;;;;;;77.32;16.40;;;6.60;1.00;;;;;;5054839;28;20708;-73
2020/12/11 12:53:48;;;;;;;76.85;17.30;;;6.60;1.00;;;;;;5054305;28;20218;-73
2020/12/11 12:59:04;;;;;;;77.50;16.60;;;6.30;1.00;;;;;;5055051;28;20201;-73
2020/12/11 13:01:37;;;;;;;82.47;20.58;;;6.10;1.00;;;;;;5054608;28;20314;-73
2020/12/11 13:04:16;;;;;;;81.38;18.85;;;6.00;1.00;;;;;;5054235;28;20205;-73
2020/12/11 13:06:45;;;;;;;73.57;16.08;;;5.70;1.00;;;;;;5054751;28;20202;-71